March ARB Airport
KRIV : now visible

Airfield :











YOU CAN JOIN US ON...

 
LOGIN :

Register | Disclaimer

   EN    FR    IT 

 









Legend :    VFR   Marginal VFR   IFR   Intensive IFR   Very Intensive IFR
Visi :
Ceiling :
>= 8 km
>= 3000ft
5 to 8 km
1000 to 3000 ft
1500m to 5 km
500 to 1000 ft
800 to 1500m
200 to 500 ft
< 800m
< 200 ft
Symbols :   Thunderstorms  Fog  Heavy snow  Heavy precipitations  Wind > 20 kt






- Airport Elevation : 1536 ft


KRIV - March ARB

CURRENT METAR :
  • 171650Z 13004KT 10SM FEW008 09/09 A3021 RMK AO2A SLP232

EXPIRED METARs :
  • 171558Z COR 15003KT 10SM CLR 07/06 A3018 RMK AO2 SLP224 COR 1600
  • 171458Z 20003KT 10SM FEW010 SCT025 BKN200 08/08 A3015 RMK AO2A SLP212 60000 T00750075 52009
  • 171439Z 00000KT 10SM SCT010 BKN018 08/08 A3015 RMK AO2A CIG 010V018 BKN V OVC SLP212
  • 171424Z 00000KT 10SM BKN010 OVC018 08/08 A3015 RMK AO2A SLP212
  • 171358Z 00000KT 10SM SCT008 BKN012 08/08 A3014 RMK AO2A SLP208 T00780078

TAF AMD TAF KRIV
Valid from the 17 at 16:00 until the 18 at 18:00 UTC


171634Z 1716/1818 14009KT 9999 FEW015 SCT030 OVC250 520505 QNH3011INS
BECMG 1722/1723 31009KT 9999 SCT045 QNH3015INS
BECMG 1802/1803 VRB04KT 9999 BKN200 QNH3017INS TX16/1722Z TN01/1814Z



MET'MAP, your aeronautical weather chart ! - Copyright ORBIFLY December 2007 - Disclaimer

ORBIFLY MET'MAP TEAM :

Programming & Development : Alexandra Zaïnal
Concept & original design : Baudouin d'Aumeries
Assistance for programming : Marc-Olivier Méhu
Technical & hardware support : Manuel Goepfert

Contact : metmap@orbifly.com




SOURCES & CREDITS :

   NOAA       Earth
Advisory